createdAt,value
2023-05-05T00:02:13.138Z,97079.05
2023-05-05T00:04:44.471Z,97080.61
2023-05-05T00:07:15.331Z,97082.50
2023-05-05T00:09:49.028Z,97079.29
2023-05-05T00:12:20.291Z,97078.41
2023-05-05T00:14:51.588Z,97074.54
2023-05-05T00:17:22.028Z,97074.73
2023-05-05T00:19:52.489Z,97072.59
2023-05-05T00:22:22.832Z,97072.62
2023-05-05T00:24:53.004Z,97073.68
2023-05-05T00:27:23.511Z,97072.73
2023-05-05T00:29:53.834Z,97072.08
2023-05-05T00:32:24.556Z,97080.36
2023-05-05T00:34:56.377Z,97077.54
2023-05-05T00:37:27.320Z,97074.89
2023-05-05T00:39:57.642Z,97071.91
2023-05-05T00:42:28.287Z,97073.64
2023-05-05T00:44:58.643Z,97069.11
2023-05-05T00:47:29.366Z,97068.56
2023-05-05T00:50:00.104Z,97066.55
2023-05-05T00:52:31.029Z,97064.59
2023-05-05T00:55:01.620Z,97055.25
2023-05-05T00:57:32.221Z,97058.83
2023-05-05T01:00:02.927Z,97057.94
2023-05-05T01:02:33.193Z,97063.20
2023-05-05T01:05:04.550Z,97062.69
2023-05-05T01:07:42.337Z,97059.98
2023-05-05T01:10:20.269Z,97061.52
2023-05-05T01:12:58.019Z,97061.66
2023-05-05T01:15:34.027Z,97068.98
2023-05-05T01:18:11.125Z,97068.60
2023-05-05T01:20:42.314Z,97061.64
2023-05-05T01:23:22.921Z,97060.70
2023-05-05T01:26:09.483Z,97055.17
2023-05-05T01:29:08.479Z,97047.95
2023-05-05T01:31:52.869Z,97048.63
2023-05-05T01:34:27.031Z,97048.18
2023-05-05T01:37:02.154Z,97051.39
2023-05-05T01:39:35.522Z,97050.96
2023-05-05T01:42:09.030Z,97048.76
2023-05-05T01:44:39.779Z,97047.62
2023-05-05T01:47:11.216Z,97046.84
2023-05-05T01:49:42.318Z,97046.58
2023-05-05T01:52:13.114Z,97045.50
2023-05-05T01:54:47.755Z,97042.73
2023-05-05T01:57:20.886Z,97041.15
2023-05-05T01:59:52.808Z,97042.37
2023-05-05T02:02:24.766Z,97042.34
2023-05-05T02:04:56.486Z,97043.42
2023-05-05T02:07:27.200Z,97040.70
2023-05-05T02:09:58.308Z,97041.13
2023-05-05T02:12:30.006Z,97038.27
2023-05-05T02:15:01.978Z,97034.30
2023-05-05T02:17:33.052Z,97037.65
2023-05-05T02:20:04.185Z,97037.02
2023-05-05T02:22:34.565Z,97034.94
2023-05-05T02:25:06.131Z,97029.45
2023-05-05T02:27:37.926Z,97027.19
2023-05-05T02:30:11.642Z,97028.15
2023-05-05T02:32:47.060Z,97029.81
2023-05-05T02:35:20.093Z,97028.48
2023-05-05T02:37:59.288Z,97026.24
2023-05-05T02:40:30.923Z,97031.39
2023-05-05T02:43:04.882Z,97025.05
2023-05-05T02:45:35.424Z,97025.48
2023-05-05T02:48:06.778Z,97024.59
2023-05-05T02:50:38.038Z,97018.59
2023-05-05T02:53:08.608Z,97018.45
2023-05-05T02:55:44.600Z,97016.87
2023-05-05T02:58:22.574Z,97016.09
2023-05-05T03:01:00.264Z,97022.20
2023-05-05T03:03:35.345Z,97015.30
2023-05-05T03:06:11.231Z,97017.89
2023-05-05T03:08:44.814Z,97015.31
2023-05-05T03:11:19.287Z,97011.23
2023-05-05T03:13:54.153Z,97008.78
2023-05-05T03:16:24.970Z,97005.05
2023-05-05T03:18:55.974Z,97003.42
2023-05-05T03:21:26.656Z,97002.20
2023-05-05T03:23:57.212Z,96997.59
2023-05-05T03:26:27.591Z,96996.34
2023-05-05T03:28:58.026Z,96998.11
2023-05-05T03:31:28.801Z,96992.09
2023-05-05T03:33:59.150Z,96991.23
2023-05-05T03:36:29.625Z,96987.77
2023-05-05T03:39:00.183Z,96987.09
2023-05-05T03:41:32.410Z,96984.06
2023-05-05T03:44:02.924Z,96986.38
2023-05-05T03:46:33.135Z,96984.82
2023-05-05T03:49:03.512Z,96982.63
2023-05-05T03:51:33.998Z,96976.48
2023-05-05T03:54:04.419Z,96972.10
2023-05-05T03:56:34.876Z,96970.48
2023-05-05T03:59:05.384Z,96970.61
2023-05-05T04:01:35.944Z,96974.17
2023-05-05T04:04:06.648Z,96975.88
2023-05-05T04:06:38.136Z,96980.55
2023-05-05T04:09:08.682Z,96981.73
2023-05-05T04:11:38.919Z,96974.88
2023-05-05T04:14:09.089Z,96966.25
2023-05-05T04:16:39.356Z,96966.91
2023-05-05T04:19:09.580Z,96961.56
2023-05-05T04:21:40.751Z,96958.20
2023-05-05T04:24:11.178Z,96960.77
2023-05-05T04:26:41.321Z,96958.31
2023-05-05T04:29:11.978Z,96956.26
2023-05-05T04:31:42.567Z,96958.48
2023-05-05T04:34:12.763Z,96951.50
2023-05-05T04:36:42.970Z,96948.77
2023-05-05T04:39:13.213Z,96944.86
2023-05-05T04:41:43.343Z,96945.77
2023-05-05T04:44:14.384Z,96942.52
2023-05-05T04:46:44.870Z,96937.86
2023-05-05T04:49:15.004Z,96939.37
2023-05-05T04:51:46.294Z,96940.44
2023-05-05T04:54:16.553Z,96941.19
2023-05-05T04:56:47.559Z,96943.56
2023-05-05T04:59:18.002Z,96942.20
2023-05-05T05:01:48.314Z,96940.57
2023-05-05T05:04:19.137Z,96940.69
2023-05-05T05:06:49.511Z,96936.92
2023-05-05T05:09:19.903Z,96933.09
2023-05-05T05:11:50.610Z,96933.98
2023-05-05T05:14:21.091Z,96937.91
2023-05-05T05:16:52.104Z,96939.12
2023-05-05T05:19:22.516Z,96937.11
2023-05-05T05:21:52.827Z,96926.58
2023-05-05T05:24:24.024Z,96924.47
2023-05-05T05:26:54.542Z,96919.70
2023-05-05T05:29:24.929Z,96916.17
2023-05-05T05:31:55.068Z,96913.14
2023-05-05T05:34:28.369Z,96907.58
2023-05-05T05:36:58.487Z,96903.25
2023-05-05T05:39:29.626Z,96903.27
2023-05-05T05:42:00.315Z,96901.36
2023-05-05T05:44:30.942Z,96898.27
2023-05-05T05:47:01.885Z,96894.20
2023-05-05T05:49:34.534Z,96883.02
2023-05-05T05:52:06.656Z,96877.61
2023-05-05T05:54:37.484Z,96877.70
2023-05-05T05:57:08.003Z,96874.46
2023-05-05T05:59:40.923Z,96871.23
2023-05-05T06:02:11.327Z,96868.51
2023-05-05T06:04:42.286Z,96867.20
2023-05-05T06:07:13.450Z,96863.27
2023-05-05T06:09:43.997Z,96859.19
2023-05-05T06:12:14.309Z,96856.84
2023-05-05T06:14:45.566Z,96853.06
2023-05-05T06:17:16.048Z,96850.35
2023-05-05T06:19:46.375Z,96851.63
2023-05-05T06:22:16.801Z,96852.18
2023-05-05T06:24:47.599Z,96848.05
2023-05-05T06:27:18.352Z,96843.48
2023-05-05T06:29:49.035Z,96833.90
2023-05-05T06:32:20.115Z,96827.32
2023-05-05T06:34:50.772Z,96821.65
2023-05-05T06:37:21.130Z,96820.90
2023-05-05T06:39:51.271Z,96820.09
2023-05-05T06:42:21.654Z,96822.59
2023-05-05T06:44:52.348Z,96820.50
2023-05-05T06:47:23.079Z,96812.23
2023-05-05T06:49:53.759Z,96810.73
2023-05-05T06:52:24.217Z,96806.78
2023-05-05T06:54:57.395Z,96808.37
2023-05-05T06:57:28.525Z,96802.34
2023-05-05T06:59:58.920Z,96796.39
2023-05-05T07:02:29.728Z,96794.59
2023-05-05T07:05:00.088Z,96794.01
2023-05-05T07:07:32.806Z,96790.33
2023-05-05T07:10:04.422Z,96784.04
2023-05-05T07:12:34.662Z,96782.11
2023-05-05T07:15:19.228Z,96776.52
2023-05-05T07:17:56.250Z,96777.11
2023-05-05T07:20:26.901Z,96772.19
2023-05-05T07:22:57.799Z,96778.04
2023-05-05T07:25:29.355Z,96774.11
2023-05-05T07:27:59.864Z,96775.07
2023-05-05T07:30:30.192Z,96771.48
2023-05-05T07:33:00.544Z,96760.60
2023-05-05T07:35:33.141Z,96754.75
2023-05-05T07:38:03.886Z,96751.16
2023-05-05T07:40:34.263Z,96742.80
2023-05-05T07:43:05.462Z,96742.57
2023-05-05T07:45:35.915Z,96739.05
2023-05-05T07:48:06.514Z,96734.09
2023-05-05T07:50:36.821Z,96736.66
2023-05-05T07:53:14.383Z,96730.54
2023-05-05T07:55:46.027Z,96729.15
2023-05-05T07:58:17.275Z,96722.77
2023-05-05T08:00:49.071Z,96719.26
2023-05-05T08:03:24.005Z,96715.30
2023-05-05T08:05:56.829Z,96710.35
2023-05-05T08:08:27.525Z,96711.75
2023-05-05T08:10:57.966Z,96705.57
2023-05-05T08:13:28.283Z,96706.82
2023-05-05T08:15:59.211Z,96699.89
2023-05-05T08:18:29.572Z,96696.16
2023-05-05T08:21:00.577Z,96693.60
2023-05-05T08:23:31.497Z,96688.10
2023-05-05T08:26:01.934Z,96681.91
2023-05-05T08:28:32.593Z,96678.79
2023-05-05T08:31:02.858Z,96673.23
2023-05-05T08:33:33.178Z,96669.23
2023-05-05T08:36:04.047Z,96671.97
2023-05-05T08:38:34.441Z,96663.40
2023-05-05T08:41:04.640Z,96661.09
2023-05-05T08:43:36.303Z,96655.48
2023-05-05T08:46:07.127Z,96655.48
2023-05-05T08:48:37.628Z,96650.21
2023-05-05T08:51:09.639Z,96648.07
2023-05-05T08:53:49.633Z,96641.19
2023-05-05T08:56:21.781Z,96635.05
2023-05-05T08:58:52.794Z,96636.63
2023-05-05T09:01:31.864Z,96630.33
2023-05-05T09:04:03.461Z,96626.48
2023-05-05T09:06:34.357Z,96623.85
2023-05-05T09:09:05.893Z,96619.02
2023-05-05T09:11:37.154Z,96619.42
2023-05-05T09:14:07.596Z,96617.92
2023-05-05T09:16:38.274Z,96613.14
2023-05-05T09:19:09.066Z,96612.77
2023-05-05T09:21:48.919Z,96610.38
2023-05-05T09:24:19.635Z,96612.66
2023-05-05T09:26:50.997Z,96608.24
2023-05-05T09:29:23.239Z,96606.55
2023-05-05T09:32:08.281Z,96601.64
2023-05-05T09:34:42.045Z,96599.75
2023-05-05T09:37:13.180Z,96598.81
2023-05-05T09:39:55.059Z,96595.90
2023-05-05T09:42:27.722Z,96592.36
2023-05-05T09:44:59.928Z,96590.30
2023-05-05T09:47:39.279Z,96585.80
2023-05-05T09:50:11.374Z,96582.38
2023-05-05T09:52:42.494Z,96581.63
2023-05-05T09:55:18.970Z,96579.04
2023-05-05T09:57:47.952Z,96574.33
2023-05-05T10:00:19.295Z,96567.04
2023-05-05T10:02:52.910Z,96565.09
2023-05-05T10:05:23.373Z,96561.34
2023-05-05T10:07:53.834Z,96557.50
2023-05-05T10:10:24.575Z,96554.27
2023-05-05T10:12:58.343Z,96552.22
2023-05-05T10:15:35.350Z,96550.13
2023-05-05T10:18:09.294Z,96547.77
2023-05-05T10:20:43.941Z,96537.55
2023-05-05T10:23:19.199Z,96534.11
2023-05-05T10:25:57.552Z,96531.25
2023-05-05T10:28:34.359Z,96523.98
2023-05-05T10:31:24.230Z,96522.95
2023-05-05T10:34:04.266Z,96517.89
2023-05-05T10:36:36.375Z,96516.64
2023-05-05T10:39:09.104Z,96514.86
2023-05-05T10:41:39.848Z,96512.39
2023-05-05T10:44:11.354Z,96510.22
2023-05-05T10:46:43.094Z,96507.23
2023-05-05T10:49:20.381Z,96505.77
2023-05-05T10:51:55.324Z,96505.92
2023-05-05T10:54:31.079Z,96506.67
2023-05-05T10:57:04.862Z,96502.70
2023-05-05T10:59:48.097Z,96500.35
2023-05-05T11:02:26.213Z,96490.75
2023-05-05T11:05:18.364Z,96485.35
2023-05-05T11:07:54.841Z,96482.36
2023-05-05T11:10:27.899Z,96478.48
2023-05-05T11:13:30.188Z,96469.67
2023-05-05T11:16:01.809Z,96468.14
2023-05-05T11:18:35.735Z,96462.67
2023-05-05T11:21:16.952Z,96456.32
2023-05-05T11:23:49.928Z,96448.06
2023-05-05T11:26:41.631Z,96448.02
2023-05-05T11:29:12.600Z,96442.33
2023-05-05T11:31:47.475Z,96435.72
2023-05-05T11:34:28.608Z,96429.84
2023-05-05T11:37:05.734Z,96424.04
2023-05-05T11:39:43.937Z,96423.37
2023-05-05T11:42:27.799Z,96421.05
2023-05-05T11:45:00.226Z,96420.59
2023-05-05T11:47:32.530Z,96414.29
2023-05-05T11:50:22.850Z,96411.52
2023-05-05T11:53:01.740Z,96404.42
2023-05-05T11:55:32.609Z,96399.23
2023-05-05T11:58:03.697Z,96396.58
2023-05-05T12:00:34.638Z,96391.86
2023-05-05T12:03:05.870Z,96392.86
2023-05-05T12:05:37.520Z,96388.02
2023-05-05T12:08:07.971Z,96389.66
2023-05-05T12:10:38.835Z,96389.47
2023-05-05T12:13:21.442Z,96387.05
2023-05-05T12:15:52.715Z,96387.45
2023-05-05T12:18:23.474Z,96384.95
2023-05-05T12:20:56.501Z,96381.95
2023-05-05T12:23:30.945Z,96381.77
2023-05-05T12:26:04.915Z,96379.69
2023-05-05T12:28:49.040Z,96376.45
2023-05-05T12:31:22.986Z,96377.09
2023-05-05T12:33:57.243Z,96372.57
2023-05-05T12:36:41.033Z,96371.73
2023-05-05T12:39:19.417Z,96368.92
2023-05-05T12:42:07.404Z,96367.10
2023-05-05T12:44:39.399Z,96365.52
2023-05-05T12:47:10.232Z,96358.73
2023-05-05T12:49:55.071Z,96358.51
2023-05-05T12:52:45.996Z,96361.41
2023-05-05T12:55:37.648Z,96356.02
2023-05-05T12:58:11.174Z,96352.51
2023-05-05T13:00:44.053Z,96344.86
2023-05-05T13:03:29.038Z,96342.67
2023-05-05T13:06:01.595Z,96342.37
2023-05-05T13:08:44.976Z,96342.61
2023-05-05T13:11:15.930Z,96341.55
2023-05-05T13:13:46.957Z,96342.48
2023-05-05T13:16:21.505Z,96340.02
2023-05-05T13:18:56.088Z,96342.14
2023-05-05T13:21:28.549Z,96338.70
2023-05-05T13:24:19.085Z,96332.95
2023-05-05T13:26:56.924Z,96328.45
2023-05-05T13:29:31.291Z,96328.55
2023-05-05T13:32:02.690Z,96323.37
2023-05-05T13:34:32.987Z,96327.30
2023-05-05T13:37:04.952Z,96320.35
2023-05-05T13:39:39.364Z,96323.02
2023-05-05T13:42:09.744Z,96322.55
2023-05-05T13:44:40.917Z,96323.95
2023-05-05T13:47:16.162Z,96319.94
2023-05-05T13:49:46.536Z,96320.06
2023-05-05T13:52:17.818Z,96319.59
2023-05-05T13:54:48.995Z,96323.70
2023-05-05T13:57:26.807Z,96323.69
2023-05-05T13:59:59.462Z,96324.71
2023-05-05T14:02:47.631Z,96324.60
2023-05-05T14:05:18.188Z,96326.12
2023-05-05T14:07:48.386Z,96326.94
2023-05-05T14:10:19.011Z,96325.64
2023-05-05T14:12:54.676Z,96318.79
2023-05-05T14:15:27.508Z,96318.38
2023-05-05T14:17:59.328Z,96314.80
2023-05-05T14:20:29.664Z,96314.91
2023-05-05T14:23:10.002Z,96311.49
2023-05-05T14:25:46.465Z,96311.79
2023-05-05T14:28:18.172Z,96308.49
2023-05-05T14:30:49.741Z,96306.60
2023-05-05T14:33:19.948Z,96308.69
2023-05-05T14:35:51.794Z,96311.83
2023-05-05T14:38:22.484Z,96310.11
2023-05-05T14:40:53.216Z,96314.14
2023-05-05T14:43:25.408Z,96314.27
2023-05-05T14:45:58.027Z,96312.23
2023-05-05T14:48:29.476Z,96312.09
2023-05-05T14:50:59.943Z,96309.53
2023-05-05T14:53:30.367Z,96312.92
2023-05-05T14:56:01.809Z,96312.69
2023-05-05T14:58:33.229Z,96314.01
2023-05-05T15:01:04.768Z,96316.77
2023-05-05T15:03:36.566Z,96321.41
2023-05-05T15:06:08.075Z,96319.03
2023-05-05T15:08:39.261Z,96320.00
2023-05-05T15:11:09.737Z,96316.25
2023-05-05T15:13:41.323Z,96319.17
2023-05-05T15:16:11.899Z,96324.77
2023-05-05T15:18:42.432Z,96325.51
2023-05-05T15:21:12.790Z,96324.58
2023-05-05T15:23:44.296Z,96328.82
2023-05-05T15:26:14.820Z,96330.27
2023-05-05T15:28:45.213Z,96335.65
2023-05-05T15:31:16.492Z,96337.76
2023-05-05T15:33:49.366Z,96340.24
2023-05-05T15:36:22.182Z,96342.02
2023-05-05T15:38:52.618Z,96349.45
2023-05-05T15:41:26.846Z,96353.52
2023-05-05T15:43:57.990Z,96359.79
2023-05-05T15:46:28.372Z,96359.86
2023-05-05T15:48:58.976Z,96366.07
2023-05-05T15:51:29.452Z,96368.44
2023-05-05T15:53:59.966Z,96370.23
2023-05-05T15:56:32.887Z,96372.16
2023-05-05T15:59:03.935Z,96372.59
2023-05-05T16:01:35.924Z,96377.88
2023-05-05T16:04:09.431Z,96381.55
2023-05-05T16:06:39.708Z,96385.55
2023-05-05T16:09:10.424Z,96388.16
2023-05-05T16:11:40.684Z,96390.95
2023-05-05T16:14:10.988Z,96395.77
2023-05-05T16:16:41.686Z,96392.16
2023-05-05T16:19:12.126Z,96398.46
2023-05-05T16:21:42.533Z,96408.09
2023-05-05T16:24:15.921Z,96411.18
2023-05-05T16:26:46.614Z,96416.98
2023-05-05T16:29:17.040Z,96423.37
2023-05-05T16:31:48.123Z,96424.79
2023-05-05T16:34:18.500Z,96426.27
2023-05-05T16:36:48.752Z,96432.77
2023-05-05T16:39:19.666Z,96440.63
2023-05-05T16:41:50.193Z,96447.81
2023-05-05T16:44:20.480Z,96454.40
2023-05-05T16:46:50.660Z,96457.85
2023-05-05T16:49:21.024Z,96458.53
2023-05-05T16:51:53.536Z,96458.09
2023-05-05T16:54:26.093Z,96464.13
2023-05-05T16:56:56.655Z,96469.54
2023-05-05T16:59:28.828Z,96476.96
2023-05-05T17:02:01.303Z,96485.74
2023-05-05T17:04:32.030Z,96494.90
2023-05-05T17:07:02.580Z,96498.18
2023-05-05T17:09:33.815Z,96502.98
2023-05-05T17:12:06.372Z,96504.00
2023-05-05T17:14:37.562Z,96508.34
2023-05-05T17:17:08.224Z,96515.59
2023-05-05T17:19:39.668Z,96519.52
2023-05-05T17:22:10.108Z,96527.02
2023-05-05T17:24:40.647Z,96533.18
2023-05-05T17:27:13.897Z,96536.92
2023-05-05T17:29:44.394Z,96541.30
2023-05-05T17:32:14.471Z,96542.51
2023-05-05T17:34:44.706Z,96549.47
2023-05-05T17:37:15.235Z,96553.46
2023-05-05T17:39:45.663Z,96554.17
2023-05-05T17:42:24.700Z,96558.93
2023-05-05T17:44:55.433Z,96560.15
2023-05-05T17:47:25.888Z,96563.92
2023-05-05T17:49:57.161Z,96566.73
2023-05-05T17:52:27.405Z,96570.43
2023-05-05T17:54:58.779Z,96570.42
2023-05-05T17:57:29.475Z,96577.79
2023-05-05T17:59:59.896Z,96575.33
2023-05-05T18:02:30.574Z,96575.95
2023-05-05T18:05:03.526Z,96581.29
2023-05-05T18:07:34.860Z,96584.33
2023-05-05T18:10:06.606Z,96586.42
2023-05-05T18:12:37.153Z,96588.66
2023-05-05T18:15:09.432Z,96587.46
2023-05-05T18:17:40.266Z,96589.91
2023-05-05T18:20:12.375Z,96591.46
2023-05-05T18:22:45.555Z,96595.67
2023-05-05T18:25:18.843Z,96594.16
2023-05-05T18:27:49.152Z,96595.88
2023-05-05T18:30:19.763Z,96598.75
2023-05-05T18:32:50.045Z,96597.83
2023-05-05T18:35:21.261Z,96600.26
2023-05-05T18:37:52.085Z,96605.98
2023-05-05T18:40:22.647Z,96612.07
2023-05-05T18:42:53.624Z,96613.42
2023-05-05T18:45:24.403Z,96617.26
2023-05-05T18:47:56.435Z,96616.11
2023-05-05T18:50:26.954Z,96619.18
2023-05-05T18:52:57.360Z,96622.31
2023-05-05T18:55:28.131Z,96620.75
2023-05-05T18:57:58.983Z,96621.34
2023-05-05T19:00:29.399Z,96622.36
2023-05-05T19:02:59.731Z,96626.48
2023-05-05T19:05:31.006Z,96625.08
2023-05-05T19:08:01.165Z,96622.61
2023-05-05T19:10:31.575Z,96627.86
2023-05-05T19:13:02.074Z,96627.95
2023-05-05T19:15:32.880Z,96627.28
2023-05-05T19:18:05.177Z,96629.14
2023-05-05T19:20:36.483Z,96628.69
2023-05-05T19:23:06.799Z,96628.42
2023-05-05T19:25:37.757Z,96628.11
2023-05-05T19:28:08.013Z,96629.11
2023-05-05T19:30:38.912Z,96633.96
2023-05-05T19:33:09.371Z,96635.39
2023-05-05T19:35:39.668Z,96630.29
2023-05-05T19:38:10.227Z,96637.81
2023-05-05T19:40:40.812Z,96641.23
2023-05-05T19:43:11.175Z,96644.52
2023-05-05T19:45:41.539Z,96645.27
2023-05-05T19:48:11.806Z,96643.27
2023-05-05T19:50:42.064Z,96643.77
2023-05-05T19:53:12.553Z,96641.95
2023-05-05T19:55:42.742Z,96641.66
2023-05-05T19:58:13.201Z,96647.31
2023-05-05T20:00:45.885Z,96649.66
2023-05-05T20:03:17.775Z,96652.05
2023-05-05T20:05:48.107Z,96652.59
2023-05-05T20:08:18.257Z,96656.69
2023-05-05T20:10:50.479Z,96659.70
2023-05-05T20:13:20.866Z,96666.26
2023-05-05T20:15:51.671Z,96669.58
2023-05-05T20:18:22.540Z,96670.91
2023-05-05T20:20:52.967Z,96672.65
2023-05-05T20:23:23.208Z,96673.88
2023-05-05T20:25:54.034Z,96677.46
2023-05-05T20:28:25.265Z,96677.99
2023-05-05T20:30:55.530Z,96677.64
2023-05-05T20:33:25.852Z,96680.92
2023-05-05T20:35:56.261Z,96683.40
2023-05-05T20:38:26.540Z,96685.05
2023-05-05T20:40:57.190Z,96687.30
2023-05-05T20:43:27.695Z,96685.23
2023-05-05T20:46:00.629Z,96686.17
2023-05-05T20:48:31.580Z,96689.80
2023-05-05T20:51:06.674Z,96692.98
2023-05-05T20:53:37.386Z,96692.17
2023-05-05T20:56:09.092Z,96694.89
2023-05-05T20:58:39.834Z,96693.33
2023-05-05T21:01:10.075Z,96697.08
2023-05-05T21:03:40.623Z,96694.63
2023-05-05T21:06:10.863Z,96698.25
2023-05-05T21:08:41.614Z,96701.33
2023-05-05T21:11:12.419Z,96705.81
2023-05-05T21:13:45.487Z,96707.02
2023-05-05T21:16:15.672Z,96705.84
2023-05-05T21:18:47.005Z,96702.75
2023-05-05T21:21:17.611Z,96701.76
2023-05-05T21:23:49.014Z,96701.22
2023-05-05T21:26:19.089Z,96702.05
2023-05-05T21:28:49.438Z,96702.66
2023-05-05T21:31:22.195Z,96703.85
2023-05-05T21:33:53.169Z,96703.77
2023-05-05T21:36:24.468Z,96705.98
2023-05-05T21:38:56.059Z,96709.27
2023-05-05T21:41:27.900Z,96707.87
2023-05-05T21:43:58.548Z,96708.81
2023-05-05T21:46:28.799Z,96707.00
2023-05-05T21:48:59.077Z,96705.61
2023-05-05T21:51:29.308Z,96708.16
2023-05-05T21:53:59.524Z,96706.20
2023-05-05T21:56:29.845Z,96708.64
2023-05-05T21:58:59.968Z,96709.09
2023-05-05T22:01:30.707Z,96706.44
2023-05-05T22:04:01.367Z,96704.44
2023-05-05T22:06:32.384Z,96701.45
2023-05-05T22:09:02.609Z,96703.05
2023-05-05T22:11:32.898Z,96701.59
2023-05-05T22:14:03.258Z,96698.42
2023-05-05T22:16:33.663Z,96697.20
2023-05-05T22:19:03.863Z,96697.63
2023-05-05T22:21:34.296Z,96695.88
2023-05-05T22:24:05.115Z,96696.70
2023-05-05T22:26:39.571Z,96692.59
2023-05-05T22:29:11.016Z,96689.13
2023-05-05T22:31:41.516Z,96689.23
2023-05-05T22:34:12.222Z,96685.48
2023-05-05T22:36:42.814Z,96687.77
2023-05-05T22:39:13.512Z,96685.89
2023-05-05T22:41:44.265Z,96682.63
2023-05-05T22:44:15.187Z,96682.64
2023-05-05T22:46:45.990Z,96680.68
2023-05-05T22:49:19.120Z,96683.44
2023-05-05T22:51:51.678Z,96685.51
2023-05-05T22:54:23.461Z,96680.77
2023-05-05T22:56:54.583Z,96679.11
2023-05-05T22:59:25.122Z,96680.55
2023-05-05T23:01:55.844Z,96682.61
2023-05-05T23:04:26.311Z,96685.21
2023-05-05T23:06:57.192Z,96687.42
2023-05-05T23:09:27.713Z,96687.59
2023-05-05T23:11:57.905Z,96690.10
2023-05-05T23:14:28.528Z,96688.74
2023-05-05T23:17:00.075Z,96691.16
2023-05-05T23:19:32.181Z,96690.15
2023-05-05T23:22:02.658Z,96691.45
2023-05-05T23:24:33.808Z,96695.83
2023-05-05T23:27:06.350Z,96695.90
2023-05-05T23:29:37.365Z,96697.02
2023-05-05T23:32:09.138Z,96699.36
2023-05-05T23:34:41.599Z,96699.92
2023-05-05T23:37:13.087Z,96699.15
2023-05-05T23:39:45.415Z,96695.85
2023-05-05T23:42:17.358Z,96697.27
2023-05-05T23:44:47.938Z,96701.02
2023-05-05T23:47:20.680Z,96701.25
2023-05-05T23:49:51.680Z,96704.05
2023-05-05T23:52:22.581Z,96705.64
2023-05-05T23:54:53.160Z,96703.91
2023-05-05T23:57:23.761Z,96701.86
2023-05-05T23:59:54.689Z,96698.69
